createdAt,value
2023-01-12T00:00:25.083Z,25.00
2023-01-12T00:02:52.012Z,24.52
2023-01-12T00:05:18.883Z,27.13
2023-01-12T00:07:45.734Z,26.80
2023-01-12T00:10:15.582Z,24.92
2023-01-12T00:12:42.454Z,25.67
2023-01-12T00:15:10.043Z,27.90
2023-01-12T00:17:36.872Z,27.77
2023-01-12T00:20:06.308Z,26.63
2023-01-12T00:22:33.145Z,27.25
2023-01-12T00:25:00.009Z,27.20
2023-01-12T00:27:26.877Z,27.50
2023-01-12T00:29:53.762Z,25.30
2023-01-12T00:32:21.396Z,28.25
2023-01-12T00:34:48.348Z,22.10
2023-01-12T00:37:15.782Z,25.63
2023-01-12T00:39:53.123Z,24.50
2023-01-12T00:42:42.373Z,24.40
2023-01-12T00:45:36.588Z,23.95
2023-01-12T00:48:03.520Z,24.80
2023-01-12T00:50:30.359Z,23.63
2023-01-12T00:52:57.543Z,26.48
2023-01-12T00:55:24.457Z,25.90
2023-01-12T00:57:51.304Z,23.88
2023-01-12T01:00:18.587Z,24.67
2023-01-12T01:02:45.809Z,26.08
2023-01-12T01:05:12.656Z,27.60
2023-01-12T01:07:39.522Z,31.88
2023-01-12T01:10:07.292Z,27.73
2023-01-12T01:12:34.127Z,28.83
2023-01-12T01:15:00.988Z,33.97
2023-01-12T01:17:29.282Z,32.60
2023-01-12T01:19:56.578Z,31.52
2023-01-12T01:22:23.907Z,30.17
2023-01-12T01:24:50.807Z,29.70
2023-01-12T01:27:17.625Z,32.13
2023-01-12T01:29:44.526Z,31.48
2023-01-12T01:32:11.442Z,31.88
2023-01-12T01:34:38.299Z,31.90
2023-01-12T01:37:05.162Z,29.92
2023-01-12T01:39:32.422Z,30.35
2023-01-12T01:42:00.973Z,33.15
2023-01-12T01:44:30.557Z,29.80
2023-01-12T01:47:45.963Z,28.60
2023-01-12T01:50:25.366Z,31.08
2023-01-12T01:53:08.781Z,28.83
2023-01-12T01:55:48.317Z,29.95
2023-01-12T01:58:41.083Z,28.75
2023-01-12T02:01:09.101Z,26.60
2023-01-12T02:03:37.915Z,28.60
2023-01-12T02:06:07.332Z,33.17
2023-01-12T02:09:03.972Z,29.13
2023-01-12T02:11:49.516Z,36.97
2023-01-12T02:14:35.073Z,30.67
2023-01-12T02:18:11.256Z,31.92
2023-01-12T02:20:55.727Z,32.00
2023-01-12T02:23:22.564Z,30.52
2023-01-12T02:26:37.184Z,28.60
2023-01-12T02:29:06.531Z,27.55
2023-01-12T02:32:12.519Z,28.08
2023-01-12T02:35:00.778Z,31.48
2023-01-12T02:37:47.585Z,30.83
2023-01-12T02:40:28.828Z,29.08
2023-01-12T02:43:30.535Z,27.52
2023-01-12T02:46:28.679Z,28.17
2023-01-12T02:49:09.552Z,32.20
2023-01-12T02:51:48.048Z,29.27
2023-01-12T02:54:19.712Z,31.33
2023-01-12T02:57:04.077Z,30.52
2023-01-12T02:59:37.136Z,31.50
2023-01-12T03:04:36.807Z,32.25
2023-01-12T03:07:03.592Z,26.08
2023-01-12T03:09:55.731Z,30.73
2023-01-12T03:12:35.355Z,28.13
2023-01-12T03:15:08.174Z,31.30
2023-01-12T03:18:03.871Z,32.25
2023-01-12T03:20:39.323Z,27.38
2023-01-12T03:23:20.237Z,31.42
2023-01-12T03:25:50.807Z,30.42
2023-01-12T03:28:22.766Z,26.40
2023-01-12T03:31:00.869Z,28.60
2023-01-12T03:33:27.942Z,27.17
2023-01-12T03:36:35.345Z,27.35
2023-01-12T03:39:15.982Z,26.23
2023-01-12T03:41:56.386Z,28.83
2023-01-12T03:44:41.805Z,26.85
2023-01-12T03:47:18.346Z,27.88
2023-01-12T03:49:57.721Z,24.83
2023-01-12T03:52:28.449Z,24.55
2023-01-12T03:54:59.543Z,27.95
2023-01-12T03:57:27.973Z,31.60
2023-01-12T03:59:57.387Z,32.40
2023-01-12T04:02:24.200Z,30.10
2023-01-12T04:04:51.564Z,30.38
2023-01-12T04:07:18.424Z,28.80
2023-01-12T04:09:45.256Z,26.60
2023-01-12T04:12:12.139Z,29.33
2023-01-12T04:14:42.453Z,27.10
2023-01-12T04:17:13.796Z,24.67
2023-01-12T04:19:41.152Z,24.35
2023-01-12T04:22:28.172Z,27.85
2023-01-12T04:24:55.016Z,27.02
2023-01-12T04:27:21.841Z,26.50
2023-01-12T04:29:48.819Z,28.77
2023-01-12T04:32:15.712Z,32.35
2023-01-12T04:34:42.545Z,23.75
2023-01-12T04:37:09.404Z,25.98
2023-01-12T04:39:36.182Z,24.17
2023-01-12T04:42:03.125Z,25.63
2023-01-12T04:44:30.086Z,27.13
2023-01-12T04:46:56.906Z,23.38
2023-01-12T04:49:23.718Z,26.63
2023-01-12T04:51:50.540Z,24.02
2023-01-12T04:54:17.324Z,25.30
2023-01-12T04:56:44.117Z,27.08
2023-01-12T04:59:10.930Z,23.08
2023-01-12T05:01:39.083Z,24.08
2023-01-12T05:04:07.847Z,24.42
2023-01-12T05:06:35.056Z,35.30
2023-01-12T05:09:20.342Z,31.20
2023-01-12T05:11:47.189Z,25.58
2023-01-12T05:14:14.064Z,29.20
2023-01-12T05:16:41.061Z,24.88
2023-01-12T05:19:09.400Z,26.45
2023-01-12T05:21:36.315Z,28.80
2023-01-12T05:24:03.314Z,29.75
2023-01-12T05:26:30.127Z,29.95
2023-01-12T05:28:57.000Z,30.55
2023-01-12T05:31:23.892Z,29.08
2023-01-12T05:33:54.636Z,30.17
2023-01-12T05:36:21.625Z,27.25
2023-01-12T05:38:48.517Z,33.47
2023-01-12T05:41:15.418Z,31.25
2023-01-12T05:43:52.220Z,26.75
2023-01-12T05:46:29.734Z,27.65
2023-01-12T05:48:58.056Z,28.77
2023-01-12T05:51:27.197Z,32.15
2023-01-12T05:53:55.243Z,25.67
2023-01-12T05:56:27.586Z,33.88
2023-01-12T05:59:01.152Z,32.28
2023-01-12T06:01:29.679Z,27.80
2023-01-12T06:04:01.364Z,29.73
2023-01-12T06:06:31.404Z,34.60
2023-01-12T06:09:01.207Z,27.33
2023-01-12T06:11:46.714Z,34.10
2023-01-12T06:14:13.653Z,34.55
2023-01-12T06:16:43.461Z,33.05
2023-01-12T06:19:13.060Z,32.78
2023-01-12T06:21:41.017Z,31.23
2023-01-12T06:24:08.995Z,25.80
2023-01-12T06:26:35.972Z,38.92
2023-01-12T06:29:05.473Z,56.10
2023-01-12T06:31:33.546Z,46.53
2023-01-12T06:34:00.429Z,37.25
2023-01-12T06:36:27.380Z,34.40
2023-01-12T06:38:54.265Z,34.15
2023-01-12T06:41:39.587Z,28.98
2023-01-12T06:44:06.461Z,33.50
2023-01-12T06:46:33.313Z,30.73
2023-01-12T06:49:00.521Z,33.28
2023-01-12T06:51:27.957Z,29.67
2023-01-12T06:53:55.357Z,34.72
2023-01-12T06:56:22.842Z,28.10
2023-01-12T06:58:49.735Z,30.35
2023-01-12T07:01:16.992Z,32.17
2023-01-12T07:03:44.141Z,30.15
2023-01-12T07:06:11.050Z,25.58
2023-01-12T07:08:37.985Z,28.52
2023-01-12T07:11:08.121Z,25.58
2023-01-12T07:13:35.415Z,27.05
2023-01-12T07:16:02.845Z,21.08
2023-01-12T07:18:31.217Z,27.50
2023-01-12T07:20:58.327Z,24.25
2023-01-12T07:23:25.520Z,23.85
2023-01-12T07:25:52.571Z,23.75
2023-01-12T07:28:19.409Z,22.63
2023-01-12T07:30:46.371Z,21.10
2023-01-12T07:33:18.423Z,21.20
2023-01-12T07:35:45.569Z,26.70
2023-01-12T07:38:12.518Z,45.53
2023-01-12T07:40:39.444Z,49.83
2023-01-12T07:43:09.010Z,18.58
2023-01-12T07:45:36.500Z,25.73
2023-01-12T07:48:03.691Z,24.55
2023-01-12T07:50:30.759Z,23.67
2023-01-12T07:53:02.353Z,22.80
2023-01-12T07:55:31.178Z,23.45
2023-01-12T07:58:03.609Z,24.60
2023-01-12T08:00:31.450Z,25.25
2023-01-12T08:03:14.098Z,14.88
2023-01-12T08:05:41.415Z,21.80
2023-01-12T08:08:08.784Z,19.10
2023-01-12T08:10:36.156Z,20.40
2023-01-12T08:13:03.271Z,18.17
2023-01-12T08:15:38.979Z,17.15
2023-01-12T08:18:19.264Z,19.02
2023-01-12T08:20:47.231Z,17.10
2023-01-12T08:23:26.179Z,16.20
2023-01-12T08:26:01.226Z,17.10
2023-01-12T08:28:48.618Z,23.33
2023-01-12T08:33:46.871Z,16.85
2023-01-12T08:36:16.968Z,19.77
2023-01-12T08:38:45.059Z,16.98
2023-01-12T08:41:30.563Z,18.15
2023-01-12T08:44:03.337Z,18.23
2023-01-12T08:46:39.596Z,17.63
2023-01-12T08:49:11.537Z,17.70
2023-01-12T08:51:44.632Z,21.52
2023-01-12T08:54:14.072Z,18.27
2023-01-12T08:56:41.082Z,14.38
2023-01-12T08:59:08.256Z,18.65
2023-01-12T09:01:35.824Z,15.25
2023-01-12T09:04:02.993Z,15.55
2023-01-12T09:06:35.444Z,18.70
2023-01-12T09:09:06.263Z,18.92
2023-01-12T09:11:33.234Z,16.63
2023-01-12T09:14:00.348Z,24.15
2023-01-12T09:16:30.206Z,17.45
2023-01-12T09:18:57.915Z,16.55
2023-01-12T09:21:27.740Z,17.58
2023-01-12T09:23:55.877Z,21.38
2023-01-12T09:26:31.658Z,15.68
2023-01-12T09:29:00.482Z,17.48
2023-01-12T09:31:30.267Z,16.08
2023-01-12T09:33:57.684Z,20.83
2023-01-12T09:36:29.960Z,17.75
2023-01-12T09:38:58.160Z,21.20
2023-01-12T09:41:56.932Z,19.33
2023-01-12T09:44:58.197Z,21.42
2023-01-12T09:47:53.875Z,17.73
2023-01-12T09:50:32.579Z,21.15
2023-01-12T09:53:21.665Z,21.80
2023-01-12T09:56:01.630Z,20.60
2023-01-12T09:58:59.492Z,23.27
2023-01-12T10:01:29.830Z,25.30
2023-01-12T10:04:01.074Z,15.90
2023-01-12T10:06:28.854Z,17.90
2023-01-12T10:09:13.640Z,16.15
2023-01-12T10:12:05.908Z,18.40
2023-01-12T10:14:32.753Z,17.13
2023-01-12T10:17:25.586Z,26.35
2023-01-12T10:20:24.958Z,26.27
2023-01-12T10:22:58.488Z,30.75
2023-01-12T10:25:44.949Z,17.80
2023-01-12T10:28:26.235Z,29.75
2023-01-12T10:30:56.363Z,26.85
2023-01-12T10:33:34.616Z,22.10
2023-01-12T10:36:20.668Z,30.23
2023-01-12T10:38:57.676Z,40.90
2023-01-12T10:41:27.207Z,30.55
2023-01-12T10:43:59.510Z,29.33
2023-01-12T10:46:32.450Z,30.85
2023-01-12T10:49:20.572Z,20.77
2023-01-12T10:52:41.093Z,25.77
2023-01-12T10:55:19.875Z,24.88
2023-01-12T10:57:49.736Z,23.85
2023-01-12T11:00:26.023Z,24.92
2023-01-12T11:02:53.977Z,27.00
2023-01-12T11:05:38.654Z,19.40
2023-01-12T11:08:28.341Z,14.85
2023-01-12T11:10:55.220Z,13.23
2023-01-12T11:13:36.594Z,13.88
2023-01-12T11:16:19.314Z,13.30
2023-01-12T11:19:10.534Z,14.02
2023-01-12T11:21:42.386Z,17.73
2023-01-12T11:24:42.626Z,17.17
2023-01-12T11:27:28.163Z,17.17
2023-01-12T11:30:28.240Z,19.15
2023-01-12T11:33:10.279Z,19.65
2023-01-12T11:36:15.822Z,16.77
2023-01-12T11:38:55.185Z,19.67
2023-01-12T11:41:37.505Z,19.60
2023-01-12T11:44:16.606Z,12.63
2023-01-12T11:47:06.536Z,20.98
2023-01-12T11:49:47.590Z,18.33
2023-01-12T11:52:16.641Z,14.43
2023-01-12T11:54:44.065Z,22.33
2023-01-12T11:57:31.932Z,19.48
2023-01-12T12:00:29.104Z,13.80
2023-01-12T12:03:54.533Z,18.45
2023-01-12T12:06:46.787Z,14.95
2023-01-12T12:09:43.663Z,15.98
2023-01-12T12:12:55.673Z,20.92
2023-01-12T12:15:58.785Z,14.15
2023-01-12T12:19:02.425Z,19.77
2023-01-12T12:22:08.023Z,14.85
2023-01-12T12:25:41.438Z,13.43
2023-01-12T12:28:21.253Z,13.23
2023-01-12T12:30:48.341Z,14.70
2023-01-12T12:33:36.220Z,12.30
2023-01-12T12:36:18.932Z,12.13
2023-01-12T12:39:35.955Z,13.95
2023-01-12T12:42:27.898Z,15.00
2023-01-12T12:45:54.939Z,14.85
2023-01-12T12:48:52.177Z,16.10
2023-01-12T12:51:20.498Z,13.50
2023-01-12T12:53:52.377Z,17.70
2023-01-12T12:56:26.223Z,17.52
2023-01-12T12:58:56.703Z,16.85
2023-01-12T13:01:23.758Z,16.27
2023-01-12T13:03:53.954Z,22.23
2023-01-12T13:06:32.175Z,22.17
2023-01-12T13:09:12.295Z,22.30
2023-01-12T13:12:34.719Z,19.38
2023-01-12T13:15:26.095Z,18.20
2023-01-12T13:17:55.278Z,16.33
2023-01-12T13:20:37.304Z,21.45
2023-01-12T13:23:44.578Z,34.28
2023-01-12T13:26:39.379Z,25.40
2023-01-12T13:29:24.569Z,14.30
2023-01-12T13:32:12.679Z,17.63
2023-01-12T13:34:42.223Z,20.98
2023-01-12T13:37:32.873Z,56.47
2023-01-12T13:40:30.607Z,25.50
2023-01-12T13:43:31.193Z,15.23
2023-01-12T13:46:20.193Z,15.27
2023-01-12T13:48:53.798Z,20.98
2023-01-12T13:51:34.823Z,17.63
2023-01-12T13:54:16.068Z,24.38
2023-01-12T13:56:52.297Z,14.27
2023-01-12T13:59:19.553Z,12.15
2023-01-12T14:01:48.545Z,14.35
2023-01-12T14:04:18.734Z,15.75
2023-01-12T14:07:45.776Z,15.52
2023-01-12T14:10:53.621Z,14.30
2023-01-12T14:14:35.151Z,13.23
2023-01-12T14:17:36.242Z,16.08
2023-01-12T14:20:03.227Z,13.48
2023-01-12T14:22:30.153Z,12.45
2023-01-12T14:25:21.636Z,14.23
2023-01-12T14:27:51.401Z,15.40
2023-01-12T14:30:18.909Z,15.82
2023-01-12T14:32:48.614Z,16.88
2023-01-12T14:35:27.445Z,27.63
2023-01-12T14:38:01.768Z,14.63
2023-01-12T14:40:33.590Z,15.80
2023-01-12T14:43:21.665Z,13.93
2023-01-12T14:46:08.675Z,15.98
2023-01-12T14:48:40.489Z,23.65
2023-01-12T14:51:10.266Z,23.00
2023-01-12T14:53:42.858Z,19.83
2023-01-12T14:56:22.781Z,22.35
2023-01-12T14:58:50.568Z,22.80
2023-01-12T15:01:37.034Z,30.20
2023-01-12T15:04:08.199Z,24.35
2023-01-12T15:06:44.332Z,38.42
2023-01-12T15:09:31.677Z,27.65
2023-01-12T15:11:58.967Z,80.50
2023-01-12T15:14:29.269Z,71.97
2023-01-12T15:17:15.270Z,72.15
2023-01-12T15:20:00.739Z,128.38
2023-01-12T15:22:47.319Z,87.47
2023-01-12T15:25:37.226Z,60.25
2023-01-12T15:28:07.513Z,77.25
2023-01-12T15:30:38.432Z,53.15
2023-01-12T15:33:06.502Z,55.67
2023-01-12T15:35:35.284Z,50.10
2023-01-12T15:38:02.208Z,59.53
2023-01-12T15:40:30.008Z,58.85
2023-01-12T15:42:59.156Z,41.42
2023-01-12T15:45:34.833Z,39.05
2023-01-12T15:48:03.774Z,45.47
2023-01-12T15:50:32.846Z,54.42
2023-01-12T15:53:01.427Z,35.65
2023-01-12T15:55:35.793Z,30.25
2023-01-12T15:58:03.010Z,29.92
2023-01-12T16:00:30.042Z,41.03
2023-01-12T16:02:57.004Z,24.70
2023-01-12T16:05:26.318Z,33.70
2023-01-12T16:07:53.746Z,27.33
2023-01-12T16:10:21.515Z,35.50
2023-01-12T16:12:48.390Z,24.58
2023-01-12T16:15:29.118Z,22.02
2023-01-12T16:17:56.388Z,27.65
2023-01-12T16:20:23.201Z,25.55
2023-01-12T16:22:50.175Z,23.38
2023-01-12T16:25:17.438Z,30.90
2023-01-12T16:27:44.669Z,19.67
2023-01-12T16:30:15.856Z,47.70
2023-01-12T16:32:46.960Z,30.88
2023-01-12T16:35:15.805Z,22.17
2023-01-12T16:37:44.814Z,20.80
2023-01-12T16:40:13.023Z,19.35
2023-01-12T16:42:40.119Z,35.30
2023-01-12T16:45:08.101Z,48.28
2023-01-12T16:47:35.565Z,29.98
2023-01-12T16:50:03.953Z,31.60
2023-01-12T16:52:30.930Z,21.40
2023-01-12T16:54:58.492Z,18.48
2023-01-12T16:57:25.855Z,23.83
2023-01-12T16:59:53.490Z,25.08
2023-01-12T17:02:21.667Z,27.30
2023-01-12T17:04:52.892Z,39.05
2023-01-12T17:07:21.469Z,33.20
2023-01-12T17:09:49.441Z,21.52
2023-01-12T17:12:17.614Z,37.20
2023-01-12T17:14:46.072Z,27.48
2023-01-12T17:17:13.892Z,40.60
2023-01-12T17:19:47.255Z,90.65
2023-01-12T17:22:15.324Z,57.45
2023-01-12T17:24:42.950Z,51.85
2023-01-12T17:27:11.440Z,42.72
2023-01-12T17:29:39.021Z,37.13
2023-01-12T17:32:07.922Z,24.20
2023-01-12T17:34:38.985Z,25.73
2023-01-12T17:37:11.034Z,24.15
2023-01-12T17:39:43.245Z,20.92
2023-01-12T17:42:34.714Z,23.00
2023-01-12T17:45:02.555Z,24.10
2023-01-12T17:47:30.181Z,16.63
2023-01-12T17:49:57.226Z,23.10
2023-01-12T17:52:24.414Z,23.23
2023-01-12T17:54:51.744Z,23.20
2023-01-12T17:57:18.820Z,22.27
2023-01-12T17:59:45.827Z,28.48
2023-01-12T18:02:14.890Z,15.80
2023-01-12T18:04:42.153Z,20.17
2023-01-12T18:07:09.753Z,16.52
2023-01-12T18:09:37.164Z,13.05
2023-01-12T18:12:05.429Z,19.10
2023-01-12T18:14:32.737Z,20.73
2023-01-12T18:17:01.661Z,17.02
2023-01-12T18:19:30.470Z,20.48
2023-01-12T18:21:59.515Z,15.88
2023-01-12T18:24:27.808Z,17.25
2023-01-12T18:26:55.289Z,20.20
2023-01-12T18:29:22.754Z,15.13
2023-01-12T18:31:50.007Z,17.20
2023-01-12T18:34:19.495Z,15.43
2023-01-12T18:36:48.221Z,16.85
2023-01-12T18:39:21.640Z,14.90
2023-01-12T18:42:08.688Z,12.38
2023-01-12T18:44:36.822Z,15.68
2023-01-12T18:47:22.747Z,11.25
2023-01-12T18:49:50.684Z,13.02
2023-01-12T18:52:37.561Z,16.27
2023-01-12T18:55:06.449Z,13.68
2023-01-12T18:57:34.418Z,12.18
2023-01-12T19:00:14.937Z,13.90
2023-01-12T19:02:42.103Z,15.60
2023-01-12T19:05:47.279Z,15.27
2023-01-12T19:08:29.301Z,12.27
2023-01-12T19:11:07.149Z,13.98
2023-01-12T19:13:53.583Z,18.38
2023-01-12T19:16:41.405Z,22.63
2023-01-12T19:19:08.868Z,16.95
2023-01-12T19:21:55.272Z,25.00
2023-01-12T19:24:41.194Z,17.75
2023-01-12T19:27:31.377Z,20.33
2023-01-12T19:29:58.454Z,16.13
2023-01-12T19:46:34.510Z,32.58
2023-01-12T19:49:01.540Z,32.65
2023-01-12T19:51:28.407Z,68.53
2023-01-12T19:53:55.544Z,62.03
2023-01-12T19:56:22.623Z,35.38
2023-01-12T19:58:50.692Z,53.03
2023-01-12T20:01:23.173Z,35.08
2023-01-12T20:03:51.114Z,35.88
2023-01-12T20:06:18.616Z,33.80
2023-01-12T20:08:45.723Z,32.92
2023-01-12T20:11:13.646Z,34.53
2023-01-12T20:13:40.698Z,34.90
2023-01-12T20:16:10.538Z,38.03
2023-01-12T20:18:37.662Z,44.95
2023-01-12T20:21:09.955Z,26.10
2023-01-12T20:23:36.893Z,32.17
2023-01-12T20:26:09.066Z,28.33
2023-01-12T20:28:36.132Z,21.33
2023-01-12T20:31:13.150Z,24.80
2023-01-12T20:33:40.661Z,24.20
2023-01-12T20:36:14.469Z,25.73
2023-01-12T20:38:42.873Z,28.60
2023-01-12T20:41:10.856Z,22.33
2023-01-12T20:43:38.373Z,21.75
2023-01-12T20:46:11.599Z,36.17
2023-01-12T20:48:43.052Z,26.90
2023-01-12T20:51:16.428Z,26.77
2023-01-12T20:53:44.321Z,29.42
2023-01-12T20:56:11.392Z,23.15
2023-01-12T20:58:38.396Z,16.98
2023-01-12T21:01:11.987Z,15.15
2023-01-12T21:03:39.114Z,16.67
2023-01-12T21:06:11.850Z,18.00
2023-01-12T21:08:40.596Z,24.50
2023-01-12T21:11:07.827Z,17.85
2023-01-12T21:13:34.826Z,22.38
2023-01-12T21:16:04.914Z,15.93
2023-01-12T21:18:33.755Z,15.68
2023-01-12T21:21:01.764Z,27.25
2023-01-12T21:23:28.900Z,20.48
2023-01-12T21:25:55.829Z,16.80
2023-01-12T21:28:23.581Z,18.65
2023-01-12T21:30:50.965Z,16.15
2023-01-12T21:33:17.917Z,20.70
2023-01-12T21:35:53.773Z,17.30
2023-01-12T21:38:21.125Z,19.63
2023-01-12T21:40:48.028Z,20.40
2023-01-12T21:43:17.961Z,19.05
2023-01-12T21:45:48.865Z,21.00
2023-01-12T21:48:18.335Z,19.65
2023-01-12T21:50:45.364Z,16.20
2023-01-12T21:53:19.932Z,52.83
2023-01-12T21:55:56.759Z,19.13
2023-01-12T21:58:25.437Z,21.48
2023-01-12T22:00:53.493Z,18.77
2023-01-12T22:03:25.144Z,15.02
2023-01-12T22:05:53.168Z,17.65
2023-01-12T22:08:21.042Z,21.50
2023-01-12T22:10:48.394Z,19.15
2023-01-12T22:13:17.589Z,17.20
2023-01-12T22:15:45.039Z,14.27
2023-01-12T22:18:11.894Z,15.77
2023-01-12T22:20:38.772Z,18.02
2023-01-12T22:23:05.803Z,16.85
2023-01-12T22:25:32.742Z,20.75
2023-01-12T22:27:59.687Z,15.82
2023-01-12T22:30:27.885Z,16.90
2023-01-12T22:32:56.030Z,17.48
2023-01-12T22:35:23.187Z,11.85
2023-01-12T22:37:50.040Z,19.05
2023-01-12T22:40:17.314Z,14.38
2023-01-12T22:43:02.740Z,16.27
2023-01-12T22:45:29.649Z,15.48
2023-01-12T22:47:57.099Z,13.05
2023-01-12T22:50:24.792Z,15.52
2023-01-12T22:52:56.325Z,15.60
2023-01-12T22:55:25.127Z,12.43
2023-01-12T22:57:55.034Z,15.02
2023-01-12T23:00:22.249Z,13.65
2023-01-12T23:03:01.625Z,14.57
2023-01-12T23:05:35.720Z,13.20
2023-01-12T23:08:05.201Z,18.80
2023-01-12T23:10:33.063Z,13.10
2023-01-12T23:13:14.012Z,11.13
2023-01-12T23:15:46.190Z,13.65
2023-01-12T23:18:17.346Z,10.67
2023-01-12T23:20:44.980Z,15.13
2023-01-12T23:23:12.492Z,12.88
2023-01-12T23:25:39.730Z,11.40
2023-01-12T23:28:08.046Z,12.13
2023-01-12T23:30:35.328Z,13.52
2023-01-12T23:33:04.595Z,12.85
2023-01-12T23:35:40.032Z,13.55
2023-01-12T23:38:14.121Z,12.57
2023-01-12T23:40:41.284Z,10.27
2023-01-12T23:43:09.274Z,13.35
2023-01-12T23:45:36.283Z,11.52
2023-01-12T23:48:03.576Z,11.05
2023-01-12T23:50:30.444Z,14.15
2023-01-12T23:52:57.338Z,14.57
2023-01-12T23:55:25.980Z,12.13
2023-01-12T23:57:53.239Z,12.65
